sensor_id;sensor_type;location;lat;lon;timestamp;temperature;humidity
45537;DHT22;31262;51.978;5.924;2022-11-04T00:00:45;13.90;80.70
45537;DHT22;31262;51.978;5.924;2022-11-04T00:03:11;13.80;80.90
45537;DHT22;31262;51.978;5.924;2022-11-04T00:05:36;13.80;81.00
45537;DHT22;31262;51.978;5.924;2022-11-04T00:08:02;13.80;81.20
45537;DHT22;31262;51.978;5.924;2022-11-04T00:10:46;13.70;81.30
45537;DHT22;31262;51.978;5.924;2022-11-04T00:13:30;13.70;81.50
45537;DHT22;31262;51.978;5.924;2022-11-04T00:15:59;13.70;81.60
45537;DHT22;31262;51.978;5.924;2022-11-04T00:18:43;13.60;81.60
45537;DHT22;31262;51.978;5.924;2022-11-04T00:21:09;13.60;81.90
45537;DHT22;31262;51.978;5.924;2022-11-04T00:23:53;13.60;82.00
45537;DHT22;31262;51.978;5.924;2022-11-04T00:26:37;13.60;82.10
45537;DHT22;31262;51.978;5.924;2022-11-04T00:29:21;13.60;82.10
45537;DHT22;31262;51.978;5.924;2022-11-04T00:31:46;13.50;82.20
45537;DHT22;31262;51.978;5.924;2022-11-04T00:34:30;13.50;82.30
45537;DHT22;31262;51.978;5.924;2022-11-04T00:36:56;13.50;82.40
45537;DHT22;31262;51.978;5.924;2022-11-04T00:39:23;13.60;82.40
45537;DHT22;31262;51.978;5.924;2022-11-04T00:41:48;13.50;82.50
45537;DHT22;31262;51.978;5.924;2022-11-04T00:44:14;13.50;82.40
45537;DHT22;31262;51.978;5.924;2022-11-04T00:46:39;13.50;82.60
45537;DHT22;31262;51.978;5.924;2022-11-04T00:49:05;13.40;82.70
45537;DHT22;31262;51.978;5.924;2022-11-04T00:51:30;13.30;82.70
45537;DHT22;31262;51.978;5.924;2022-11-04T00:53:56;13.30;83.00
45537;DHT22;31262;51.978;5.924;2022-11-04T00:56:24;13.20;83.10
45537;DHT22;31262;51.978;5.924;2022-11-04T00:58:50;13.20;83.20
45537;DHT22;31262;51.978;5.924;2022-11-04T01:01:16;13.10;83.00
45537;DHT22;31262;51.978;5.924;2022-11-04T01:03:42;13.20;82.60
45537;DHT22;31262;51.978;5.924;2022-11-04T01:06:07;13.10;82.30
45537;DHT22;31262;51.978;5.924;2022-11-04T01:08:33;13.10;82.70
45537;DHT22;31262;51.978;5.924;2022-11-04T01:11:02;13.00;82.00
45537;DHT22;31262;51.978;5.924;2022-11-04T01:13:28;13.00;81.80
45537;DHT22;31262;51.978;5.924;2022-11-04T01:15:56;13.00;81.70
45537;DHT22;31262;51.978;5.924;2022-11-04T01:18:22;13.00;81.50
45537;DHT22;31262;51.978;5.924;2022-11-04T01:20:47;13.00;80.90
45537;DHT22;31262;51.978;5.924;2022-11-04T01:23:13;13.00;80.20
45537;DHT22;31262;51.978;5.924;2022-11-04T01:25:39;12.90;79.90
45537;DHT22;31262;51.978;5.924;2022-11-04T01:28:05;12.80;79.60
45537;DHT22;31262;51.978;5.924;2022-11-04T01:30:31;12.80;79.70
45537;DHT22;31262;51.978;5.924;2022-11-04T01:32:56;12.70;79.70
45537;DHT22;31262;51.978;5.924;2022-11-04T01:35:22;12.70;80.00
45537;DHT22;31262;51.978;5.924;2022-11-04T01:37:47;12.80;80.00
45537;DHT22;31262;51.978;5.924;2022-11-04T01:40:13;12.80;79.80
45537;DHT22;31262;51.978;5.924;2022-11-04T01:42:38;12.80;79.90
45537;DHT22;31262;51.978;5.924;2022-11-04T01:45:04;12.80;79.70
45537;DHT22;31262;51.978;5.924;2022-11-04T01:49:56;12.90;79.60
45537;DHT22;31262;51.978;5.924;2022-11-04T01:52:27;12.90;79.50
45537;DHT22;31262;51.978;5.924;2022-11-04T01:54:56;12.90;79.50
45537;DHT22;31262;51.978;5.924;2022-11-04T01:57:33;12.90;79.50
45537;DHT22;31262;51.978;5.924;2022-11-04T02:00:00;13.00;79.50
45537;DHT22;31262;51.978;5.924;2022-11-04T02:02:26;13.10;79.40
45537;DHT22;31262;51.978;5.924;2022-11-04T02:04:52;13.10;79.20
45537;DHT22;31262;51.978;5.924;2022-11-04T02:07:18;13.10;79.20
45537;DHT22;31262;51.978;5.924;2022-11-04T02:09:43;13.10;79.10
45537;DHT22;31262;51.978;5.924;2022-11-04T02:12:09;13.10;79.10
45537;DHT22;31262;51.978;5.924;2022-11-04T02:14:53;13.00;79.10
45537;DHT22;31262;51.978;5.924;2022-11-04T02:30:06;12.80;80.00
45537;DHT22;31262;51.978;5.924;2022-11-04T02:32:40;12.80;80.30
45537;DHT22;31262;51.978;5.924;2022-11-04T02:35:09;12.70;80.50
45537;DHT22;31262;51.978;5.924;2022-11-04T02:37:49;12.80;80.60
45537;DHT22;31262;51.978;5.924;2022-11-04T02:40:26;12.70;80.70
45537;DHT22;31262;51.978;5.924;2022-11-04T02:42:56;12.80;80.70
45537;DHT22;31262;51.978;5.924;2022-11-04T02:45:23;12.80;80.70
45537;DHT22;31262;51.978;5.924;2022-11-04T02:47:53;12.80;80.70
45537;DHT22;31262;51.978;5.924;2022-11-04T02:50:30;12.80;80.70
45537;DHT22;31262;51.978;5.924;2022-11-04T02:52:58;12.80;80.70
45537;DHT22;31262;51.978;5.924;2022-11-04T02:55:25;12.70;80.70
45537;DHT22;31262;51.978;5.924;2022-11-04T02:57:52;12.80;81.00
45537;DHT22;31262;51.978;5.924;2022-11-04T03:00:19;12.80;81.00
45537;DHT22;31262;51.978;5.924;2022-11-04T03:02:52;12.80;80.80
45537;DHT22;31262;51.978;5.924;2022-11-04T03:05:21;12.80;80.80
45537;DHT22;31262;51.978;5.924;2022-11-04T03:07:47;12.80;80.70
45537;DHT22;31262;51.978;5.924;2022-11-04T03:10:15;12.90;80.60
45537;DHT22;31262;51.978;5.924;2022-11-04T03:12:45;13.00;80.50
45537;DHT22;31262;51.978;5.924;2022-11-04T03:15:15;13.10;80.50
45537;DHT22;31262;51.978;5.924;2022-11-04T03:17:49;13.20;80.20
45537;DHT22;31262;51.978;5.924;2022-11-04T03:20:17;13.30;79.90
45537;DHT22;31262;51.978;5.924;2022-11-04T03:22:45;13.30;79.60
45537;DHT22;31262;51.978;5.924;2022-11-04T03:25:10;13.30;79.70
45537;DHT22;31262;51.978;5.924;2022-11-04T03:28:01;13.30;79.50
45537;DHT22;31262;51.978;5.924;2022-11-04T03:30:27;13.30;79.50
45537;DHT22;31262;51.978;5.924;2022-11-04T03:32:59;13.30;79.60
45537;DHT22;31262;51.978;5.924;2022-11-04T03:35:28;13.30;79.70
45537;DHT22;31262;51.978;5.924;2022-11-04T03:37:54;13.30;79.50
45537;DHT22;31262;51.978;5.924;2022-11-04T03:40:20;13.30;79.60
45537;DHT22;31262;51.978;5.924;2022-11-04T03:42:47;13.30;79.60
45537;DHT22;31262;51.978;5.924;2022-11-04T03:45:14;13.30;79.60
45537;DHT22;31262;51.978;5.924;2022-11-04T03:47:40;13.30;79.60
45537;DHT22;31262;51.978;5.924;2022-11-04T03:50:07;13.20;79.50
45537;DHT22;31262;51.978;5.924;2022-11-04T03:52:34;13.40;79.40
45537;DHT22;31262;51.978;5.924;2022-11-04T03:55:00;13.50;80.00
45537;DHT22;31262;51.978;5.924;2022-11-04T04:02:40;13.30;78.90
45537;DHT22;31262;51.978;5.924;2022-11-04T04:05:19;13.30;79.00
45537;DHT22;31262;51.978;5.924;2022-11-04T04:07:51;13.20;78.90
45537;DHT22;31262;51.978;5.924;2022-11-04T04:10:22;13.20;78.80
45537;DHT22;31262;51.978;5.924;2022-11-04T04:13:16;13.10;78.90
45537;DHT22;31262;51.978;5.924;2022-11-04T04:15:48;13.00;79.10
45537;DHT22;31262;51.978;5.924;2022-11-04T04:18:15;13.10;79.10
45537;DHT22;31262;51.978;5.924;2022-11-04T04:20:42;13.10;78.90
45537;DHT22;31262;51.978;5.924;2022-11-04T04:23:15;13.00;78.90
45537;DHT22;31262;51.978;5.924;2022-11-04T04:26:01;13.10;78.80
45537;DHT22;31262;51.978;5.924;2022-11-04T04:28:46;13.00;78.60
45537;DHT22;31262;51.978;5.924;2022-11-04T04:31:12;13.00;78.70
45537;DHT22;31262;51.978;5.924;2022-11-04T04:33:59;13.00;78.70
45537;DHT22;31262;51.978;5.924;2022-11-04T04:36:24;13.00;78.60
45537;DHT22;31262;51.978;5.924;2022-11-04T04:38:50;13.10;78.50
45537;DHT22;31262;51.978;5.924;2022-11-04T04:41:35;13.30;78.30
45537;DHT22;31262;51.978;5.924;2022-11-04T04:44:26;13.40;78.10
45537;DHT22;31262;51.978;5.924;2022-11-04T04:47:11;13.50;77.70
45537;DHT22;31262;51.978;5.924;2022-11-04T04:49:54;13.50;77.30
45537;DHT22;31262;51.978;5.924;2022-11-04T04:52:20;13.40;77.40
45537;DHT22;31262;51.978;5.924;2022-11-04T04:54:46;13.30;77.60
45537;DHT22;31262;51.978;5.924;2022-11-04T04:57:11;13.20;77.70
45537;DHT22;31262;51.978;5.924;2022-11-04T04:59:37;13.30;77.70
45537;DHT22;31262;51.978;5.924;2022-11-04T05:02:02;13.30;77.60
45537;DHT22;31262;51.978;5.924;2022-11-04T05:04:28;13.40;77.40
45537;DHT22;31262;51.978;5.924;2022-11-04T05:06:54;13.40;77.20
45537;DHT22;31262;51.978;5.924;2022-11-04T05:09:19;13.40;77.10
45537;DHT22;31262;51.978;5.924;2022-11-04T05:11:45;13.50;77.00
45537;DHT22;31262;51.978;5.924;2022-11-04T05:14:10;13.50;76.80
45537;DHT22;31262;51.978;5.924;2022-11-04T05:16:36;13.50;76.70
45537;DHT22;31262;51.978;5.924;2022-11-04T05:19:01;13.50;76.50
45537;DHT22;31262;51.978;5.924;2022-11-04T05:21:27;13.60;76.50
45537;DHT22;31262;51.978;5.924;2022-11-04T05:23:52;13.60;76.30
45537;DHT22;31262;51.978;5.924;2022-11-04T05:26:18;13.60;76.10
45537;DHT22;31262;51.978;5.924;2022-11-04T05:28:43;13.50;76.00
45537;DHT22;31262;51.978;5.924;2022-11-04T05:31:09;13.40;76.10
45537;DHT22;31262;51.978;5.924;2022-11-04T05:33:34;13.30;76.10
45537;DHT22;31262;51.978;5.924;2022-11-04T05:36:10;13.20;76.10
45537;DHT22;31262;51.978;5.924;2022-11-04T05:38:36;13.20;76.30
45537;DHT22;31262;51.978;5.924;2022-11-04T05:41:02;13.10;77.10
45537;DHT22;31262;51.978;5.924;2022-11-04T05:43:28;13.10;76.50
45537;DHT22;31262;51.978;5.924;2022-11-04T05:45:53;13.10;76.40
45537;DHT22;31262;51.978;5.924;2022-11-04T05:48:19;13.00;76.40
45537;DHT22;31262;51.978;5.924;2022-11-04T05:50:45;12.90;76.60
45537;DHT22;31262;51.978;5.924;2022-11-04T05:53:10;12.80;76.70
45537;DHT22;31262;51.978;5.924;2022-11-04T05:55:36;12.70;76.90
45537;DHT22;31262;51.978;5.924;2022-11-04T05:58:01;12.60;77.10
45537;DHT22;31262;51.978;5.924;2022-11-04T06:00:27;12.50;77.30
45537;DHT22;31262;51.978;5.924;2022-11-04T06:02:53;12.40;77.50
45537;DHT22;31262;51.978;5.924;2022-11-04T06:05:18;12.50;77.40
45537;DHT22;31262;51.978;5.924;2022-11-04T06:07:44;12.60;77.30
45537;DHT22;31262;51.978;5.924;2022-11-04T06:10:10;12.70;77.10
45537;DHT22;31262;51.978;5.924;2022-11-04T06:12:35;12.70;76.80
45537;DHT22;31262;51.978;5.924;2022-11-04T06:15:01;12.90;76.50
45537;DHT22;31262;51.978;5.924;2022-11-04T06:17:26;13.10;76.30
45537;DHT22;31262;51.978;5.924;2022-11-04T06:19:51;13.20;76.10
45537;DHT22;31262;51.978;5.924;2022-11-04T06:22:17;13.20;76.00
45537;DHT22;31262;51.978;5.924;2022-11-04T06:24:43;13.30;75.90
45537;DHT22;31262;51.978;5.924;2022-11-04T06:27:09;13.30;75.90
45537;DHT22;31262;51.978;5.924;2022-11-04T06:29:35;13.30;75.80
45537;DHT22;31262;51.978;5.924;2022-11-04T06:32:04;13.30;75.70
45537;DHT22;31262;51.978;5.924;2022-11-04T06:34:30;13.30;75.60
45537;DHT22;31262;51.978;5.924;2022-11-04T06:36:56;13.40;75.60
45537;DHT22;31262;51.978;5.924;2022-11-04T06:39:21;13.30;75.30
45537;DHT22;31262;51.978;5.924;2022-11-04T06:41:47;13.20;75.40
45537;DHT22;31262;51.978;5.924;2022-11-04T06:44:13;13.10;75.60
45537;DHT22;31262;51.978;5.924;2022-11-04T06:46:39;13.00;75.70
45537;DHT22;31262;51.978;5.924;2022-11-04T06:49:06;12.80;76.00
45537;DHT22;31262;51.978;5.924;2022-11-04T06:51:33;12.80;76.30
45537;DHT22;31262;51.978;5.924;2022-11-04T06:53:59;12.80;76.40
45537;DHT22;31262;51.978;5.924;2022-11-04T06:56:25;12.80;76.30
45537;DHT22;31262;51.978;5.924;2022-11-04T06:58:51;12.90;76.20
45537;DHT22;31262;51.978;5.924;2022-11-04T07:01:17;12.90;75.90
45537;DHT22;31262;51.978;5.924;2022-11-04T07:03:43;13.00;75.80
45537;DHT22;31262;51.978;5.924;2022-11-04T07:06:09;13.00;75.60
45537;DHT22;31262;51.978;5.924;2022-11-04T07:08:35;13.10;75.60
45537;DHT22;31262;51.978;5.924;2022-11-04T07:11:01;13.10;75.50
45537;DHT22;31262;51.978;5.924;2022-11-04T07:13:27;13.10;75.30
45537;DHT22;31262;51.978;5.924;2022-11-04T07:15:52;13.20;75.20
45537;DHT22;31262;51.978;5.924;2022-11-04T07:18:18;13.20;75.10
45537;DHT22;31262;51.978;5.924;2022-11-04T07:20:44;13.30;75.00
45537;DHT22;31262;51.978;5.924;2022-11-04T07:23:09;13.30;74.90
45537;DHT22;31262;51.978;5.924;2022-11-04T07:25:35;13.40;74.80
45537;DHT22;31262;51.978;5.924;2022-11-04T07:28:00;13.40;74.60
45537;DHT22;31262;51.978;5.924;2022-11-04T07:30:26;13.40;74.50
45537;DHT22;31262;51.978;5.924;2022-11-04T07:32:51;13.40;74.40
45537;DHT22;31262;51.978;5.924;2022-11-04T07:35:17;13.40;74.40
45537;DHT22;31262;51.978;5.924;2022-11-04T07:37:43;13.40;74.40
45537;DHT22;31262;51.978;5.924;2022-11-04T07:40:08;13.40;74.40
45537;DHT22;31262;51.978;5.924;2022-11-04T07:42:34;13.30;74.50
45537;DHT22;31262;51.978;5.924;2022-11-04T07:45:00;13.20;74.70
45537;DHT22;31262;51.978;5.924;2022-11-04T07:47:28;13.10;74.80
45537;DHT22;31262;51.978;5.924;2022-11-04T07:49:54;13.00;74.90
45537;DHT22;31262;51.978;5.924;2022-11-04T07:52:19;13.00;75.10
45537;DHT22;31262;51.978;5.924;2022-11-04T07:54:44;12.90;75.10
45537;DHT22;31262;51.978;5.924;2022-11-04T07:57:10;12.90;75.30
45537;DHT22;31262;51.978;5.924;2022-11-04T07:59:36;12.80;75.50
45537;DHT22;31262;51.978;5.924;2022-11-04T08:02:02;12.80;75.70
45537;DHT22;31262;51.978;5.924;2022-11-04T08:04:28;12.70;75.70
45537;DHT22;31262;51.978;5.924;2022-11-04T08:06:53;12.50;76.10
45537;DHT22;31262;51.978;5.924;2022-11-04T08:09:19;12.40;76.50
45537;DHT22;31262;51.978;5.924;2022-11-04T08:11:44;12.40;76.70
45537;DHT22;31262;51.978;5.924;2022-11-04T08:14:10;12.40;76.80
45537;DHT22;31262;51.978;5.924;2022-11-04T08:16:35;12.40;76.70
45537;DHT22;31262;51.978;5.924;2022-11-04T08:19:01;12.50;76.70
45537;DHT22;31262;51.978;5.924;2022-11-04T08:21:28;12.60;76.50
45537;DHT22;31262;51.978;5.924;2022-11-04T08:23:54;12.60;76.50
45537;DHT22;31262;51.978;5.924;2022-11-04T08:26:20;12.60;76.40
45537;DHT22;31262;51.978;5.924;2022-11-04T08:28:48;12.60;76.50
45537;DHT22;31262;51.978;5.924;2022-11-04T08:33:46;12.50;76.90
45537;DHT22;31262;51.978;5.924;2022-11-04T08:36:16;12.50;77.10
45537;DHT22;31262;51.978;5.924;2022-11-04T08:38:42;12.40;77.30
45537;DHT22;31262;51.978;5.924;2022-11-04T08:41:08;12.40;77.50
45537;DHT22;31262;51.978;5.924;2022-11-04T08:43:34;12.40;77.80
45537;DHT22;31262;51.978;5.924;2022-11-04T08:46:00;12.50;77.80
45537;DHT22;31262;51.978;5.924;2022-11-04T08:48:25;12.50;77.50
45537;DHT22;31262;51.978;5.924;2022-11-04T08:50:52;12.40;77.50
45537;DHT22;31262;51.978;5.924;2022-11-04T08:53:18;12.40;77.90
45537;DHT22;31262;51.978;5.924;2022-11-04T08:55:43;12.30;78.20
45537;DHT22;31262;51.978;5.924;2022-11-04T08:58:09;12.30;78.40
45537;DHT22;31262;51.978;5.924;2022-11-04T09:00:35;12.40;78.50
45537;DHT22;31262;51.978;5.924;2022-11-04T09:03:01;12.40;78.30
45537;DHT22;31262;51.978;5.924;2022-11-04T09:05:26;12.50;78.40
45537;DHT22;31262;51.978;5.924;2022-11-04T09:07:52;12.40;78.30
45537;DHT22;31262;51.978;5.924;2022-11-04T09:10:17;12.40;78.40
45537;DHT22;31262;51.978;5.924;2022-11-04T09:12:43;12.50;78.70
45537;DHT22;31262;51.978;5.924;2022-11-04T09:15:09;12.60;78.70
45537;DHT22;31262;51.978;5.924;2022-11-04T09:17:35;12.70;78.50
45537;DHT22;31262;51.978;5.924;2022-11-04T09:20:00;12.90;78.40
45537;DHT22;31262;51.978;5.924;2022-11-04T09:22:26;12.70;77.80
45537;DHT22;31262;51.978;5.924;2022-11-04T09:24:52;12.80;78.00
45537;DHT22;31262;51.978;5.924;2022-11-04T09:27:18;12.80;78.20
45537;DHT22;31262;51.978;5.924;2022-11-04T09:29:43;12.90;78.30
45537;DHT22;31262;51.978;5.924;2022-11-04T09:32:09;13.00;78.10
45537;DHT22;31262;51.978;5.924;2022-11-04T09:34:34;13.00;77.90
45537;DHT22;31262;51.978;5.924;2022-11-04T09:37:00;13.00;78.00
45537;DHT22;31262;51.978;5.924;2022-11-04T09:39:26;13.10;78.00
45537;DHT22;31262;51.978;5.924;2022-11-04T09:47:06;13.30;77.60
45537;DHT22;31262;51.978;5.924;2022-11-04T09:49:34;13.40;77.50
45537;DHT22;31262;51.978;5.924;2022-11-04T09:52:02;13.50;77.30
45537;DHT22;31262;51.978;5.924;2022-11-04T09:54:33;13.50;77.20
45537;DHT22;31262;51.978;5.924;2022-11-04T09:57:00;13.60;77.00
45537;DHT22;31262;51.978;5.924;2022-11-04T09:59:31;13.50;77.00
45537;DHT22;31262;51.978;5.924;2022-11-04T10:09:57;13.70;77.00
45537;DHT22;31262;51.978;5.924;2022-11-04T10:15:16;13.80;76.50
45537;DHT22;31262;51.978;5.924;2022-11-04T10:26:07;13.60;76.70
45537;DHT22;31262;51.978;5.924;2022-11-04T10:28:30;13.60;76.70
45537;DHT22;31262;51.978;5.924;2022-11-04T10:30:57;13.70;76.60
45537;DHT22;31262;51.978;5.924;2022-11-04T10:33:34;13.70;76.50
45537;DHT22;31262;51.978;5.924;2022-11-04T10:36:03;13.70;76.40
45537;DHT22;31262;51.978;5.924;2022-11-04T10:38:43;13.70;76.50
45537;DHT22;31262;51.978;5.924;2022-11-04T10:41:24;13.70;76.70
45537;DHT22;31262;51.978;5.924;2022-11-04T10:43:57;13.80;76.60
45537;DHT22;31262;51.978;5.924;2022-11-04T10:46:50;13.80;76.40
45537;DHT22;31262;51.978;5.924;2022-11-04T10:49:25;13.90;76.40
45537;DHT22;31262;51.978;5.924;2022-11-04T10:51:53;13.90;76.30
45537;DHT22;31262;51.978;5.924;2022-11-04T10:54:20;14.00;76.30
45537;DHT22;31262;51.978;5.924;2022-11-04T10:56:50;14.10;76.20
45537;DHT22;31262;51.978;5.924;2022-11-04T10:59:26;14.10;75.90
45537;DHT22;31262;51.978;5.924;2022-11-04T11:01:56;14.10;76.00
45537;DHT22;31262;51.978;5.924;2022-11-04T11:07:02;14.20;76.10
45537;DHT22;31262;51.978;5.924;2022-11-04T11:09:34;14.30;76.20
45537;DHT22;31262;51.978;5.924;2022-11-04T11:14:38;14.50;75.90
45537;DHT22;31262;51.978;5.924;2022-11-04T11:27:39;14.70;75.40
45537;DHT22;31262;51.978;5.924;2022-11-04T11:30:04;14.80;75.40
45537;DHT22;31262;51.978;5.924;2022-11-04T11:32:31;14.80;75.30
45537;DHT22;31262;51.978;5.924;2022-11-04T11:34:57;14.90;75.30
45537;DHT22;31262;51.978;5.924;2022-11-04T11:37:26;15.00;75.10
45537;DHT22;31262;51.978;5.924;2022-11-04T11:39:55;15.10;74.90
45537;DHT22;31262;51.978;5.924;2022-11-04T11:42:21;15.10;74.70
45537;DHT22;31262;51.978;5.924;2022-11-04T11:44:52;15.10;74.60
45537;DHT22;31262;51.978;5.924;2022-11-04T11:47:19;15.10;74.40
45537;DHT22;31262;51.978;5.924;2022-11-04T11:49:45;15.20;74.40
45537;DHT22;31262;51.978;5.924;2022-11-04T11:54:42;15.20;74.00
45537;DHT22;31262;51.978;5.924;2022-11-04T11:57:23;15.30;74.00
45537;DHT22;31262;51.978;5.924;2022-11-04T11:59:54;15.30;74.00
45537;DHT22;31262;51.978;5.924;2022-11-04T12:02:24;15.40;73.90
45537;DHT22;31262;51.978;5.924;2022-11-04T12:04:52;15.50;73.80
45537;DHT22;31262;51.978;5.924;2022-11-04T12:07:39;15.60;73.70
45537;DHT22;31262;51.978;5.924;2022-11-04T12:12:42;15.90;73.30
45537;DHT22;31262;51.978;5.924;2022-11-04T12:27:54;16.10;71.70
45537;DHT22;31262;51.978;5.924;2022-11-04T12:30:23;16.00;71.80
45537;DHT22;31262;51.978;5.924;2022-11-04T12:38:12;16.00;71.50
45537;DHT22;31262;51.978;5.924;2022-11-04T12:45:47;16.00;71.20
45537;DHT22;31262;51.978;5.924;2022-11-04T12:48:24;16.10;71.20
45537;DHT22;31262;51.978;5.924;2022-11-04T12:51:00;16.10;71.10
45537;DHT22;31262;51.978;5.924;2022-11-04T12:56:13;16.10;70.80
45537;DHT22;31262;51.978;5.924;2022-11-04T12:58:43;16.20;70.70
45537;DHT22;31262;51.978;5.924;2022-11-04T13:01:18;16.20;70.50
45537;DHT22;31262;51.978;5.924;2022-11-04T13:03:57;16.20;70.40
45537;DHT22;31262;51.978;5.924;2022-11-04T13:06:42;16.30;70.40
45537;DHT22;31262;51.978;5.924;2022-11-04T13:09:14;16.30;70.10
45537;DHT22;31262;51.978;5.924;2022-11-04T13:11:47;16.30;70.00
45537;DHT22;31262;51.978;5.924;2022-11-04T13:14:23;16.30;70.00
45537;DHT22;31262;51.978;5.924;2022-11-04T13:16:55;16.30;69.90
45537;DHT22;31262;51.978;5.924;2022-11-04T13:19:23;16.40;69.90
45537;DHT22;31262;51.978;5.924;2022-11-04T13:21:50;16.40;69.70
45537;DHT22;31262;51.978;5.924;2022-11-04T13:24:29;16.40;69.60
45537;DHT22;31262;51.978;5.924;2022-11-04T13:27:03;16.50;69.60
45537;DHT22;31262;51.978;5.924;2022-11-04T13:29:30;16.60;69.50
45537;DHT22;31262;51.978;5.924;2022-11-04T13:34:33;16.50;69.40
45537;DHT22;31262;51.978;5.924;2022-11-04T13:37:22;16.50;69.20
45537;DHT22;31262;51.978;5.924;2022-11-04T13:39:51;16.50;69.30
45537;DHT22;31262;51.978;5.924;2022-11-04T13:44:55;16.60;69.20
45537;DHT22;31262;51.978;5.924;2022-11-04T13:47:30;16.60;69.20
45537;DHT22;31262;51.978;5.924;2022-11-04T13:49:59;16.50;68.90
45537;DHT22;31262;51.978;5.924;2022-11-04T13:52:30;16.50;69.00
45537;DHT22;31262;51.978;5.924;2022-11-04T13:57:28;16.40;69.10
45537;DHT22;31262;51.978;5.924;2022-11-04T14:03:01;16.30;69.10
45537;DHT22;31262;51.978;5.924;2022-11-04T14:05:44;16.40;69.20
45537;DHT22;31262;51.978;5.924;2022-11-04T14:08:14;16.40;69.10
45537;DHT22;31262;51.978;5.924;2022-11-04T14:18:31;16.40;69.00
45537;DHT22;31262;51.978;5.924;2022-11-04T14:21:16;16.40;69.10
45537;DHT22;31262;51.978;5.924;2022-11-04T14:23:46;16.30;69.10
45537;DHT22;31262;51.978;5.924;2022-11-04T14:26:15;16.30;69.10
45537;DHT22;31262;51.978;5.924;2022-11-04T14:28:43;16.40;69.10
45537;DHT22;31262;51.978;5.924;2022-11-04T14:31:10;16.40;69.10
45537;DHT22;31262;51.978;5.924;2022-11-04T14:33:39;16.40;69.10
45537;DHT22;31262;51.978;5.924;2022-11-04T14:38:40;16.40;68.90
45537;DHT22;31262;51.978;5.924;2022-11-04T14:41:10;16.30;68.90
45537;DHT22;31262;51.978;5.924;2022-11-04T14:43:36;16.20;69.10
45537;DHT22;31262;51.978;5.924;2022-11-04T14:46:04;16.10;69.20
45537;DHT22;31262;51.978;5.924;2022-11-04T14:48:30;16.10;69.20
45537;DHT22;31262;51.978;5.924;2022-11-04T14:50:56;16.10;69.30
45537;DHT22;31262;51.978;5.924;2022-11-04T14:53:29;16.10;69.40
45537;DHT22;31262;51.978;5.924;2022-11-04T14:56:09;16.10;69.40
45537;DHT22;31262;51.978;5.924;2022-11-04T14:58:37;16.10;69.30
45537;DHT22;31262;51.978;5.924;2022-11-04T15:01:03;16.10;68.50
45537;DHT22;31262;51.978;5.924;2022-11-04T15:03:33;15.80;68.00
45537;DHT22;31262;51.978;5.924;2022-11-04T15:06:00;15.70;67.80
45537;DHT22;31262;51.978;5.924;2022-11-04T15:08:31;15.60;67.20
45537;DHT22;31262;51.978;5.924;2022-11-04T15:11:03;15.40;66.70
45537;DHT22;31262;51.978;5.924;2022-11-04T15:13:31;15.30;66.60
45537;DHT22;31262;51.978;5.924;2022-11-04T15:15:57;15.20;67.50
45537;DHT22;31262;51.978;5.924;2022-11-04T15:18:24;15.10;67.10
45537;DHT22;31262;51.978;5.924;2022-11-04T15:20:52;15.00;67.40
45537;DHT22;31262;51.978;5.924;2022-11-04T15:23:21;14.90;67.50
45537;DHT22;31262;51.978;5.924;2022-11-04T15:25:50;14.80;67.70
45537;DHT22;31262;51.978;5.924;2022-11-04T15:28:20;14.80;67.80
45537;DHT22;31262;51.978;5.924;2022-11-04T15:33:27;14.80;67.90
45537;DHT22;31262;51.978;5.924;2022-11-04T15:35:54;14.80;67.90
45537;DHT22;31262;51.978;5.924;2022-11-04T15:38:20;14.80;67.90
45537;DHT22;31262;51.978;5.924;2022-11-04T15:40:46;14.80;67.80
45537;DHT22;31262;51.978;5.924;2022-11-04T15:43:13;14.80;67.80
45537;DHT22;31262;51.978;5.924;2022-11-04T15:48:21;14.80;67.80
45537;DHT22;31262;51.978;5.924;2022-11-04T15:53:33;14.80;67.70
45537;DHT22;31262;51.978;5.924;2022-11-04T15:56:00;14.70;67.60
45537;DHT22;31262;51.978;5.924;2022-11-04T15:58:26;14.80;67.80
45537;DHT22;31262;51.978;5.924;2022-11-04T16:00:52;14.70;67.80
45537;DHT22;31262;51.978;5.924;2022-11-04T16:03:19;14.70;67.90
45537;DHT22;31262;51.978;5.924;2022-11-04T16:05:58;14.70;68.10
45537;DHT22;31262;51.978;5.924;2022-11-04T16:08:26;14.60;68.30
45537;DHT22;31262;51.978;5.924;2022-11-04T16:13:37;14.60;68.50
45537;DHT22;31262;51.978;5.924;2022-11-04T16:16:03;14.60;68.50
45537;DHT22;31262;51.978;5.924;2022-11-04T16:18:52;14.60;68.60
45537;DHT22;31262;51.978;5.924;2022-11-04T16:21:29;14.60;68.60
45537;DHT22;31262;51.978;5.924;2022-11-04T16:24:14;14.50;68.60
45537;DHT22;31262;51.978;5.924;2022-11-04T16:26:41;14.50;68.70
45537;DHT22;31262;51.978;5.924;2022-11-04T16:29:19;14.50;68.90
45537;DHT22;31262;51.978;5.924;2022-11-04T16:31:45;14.40;68.80
45537;DHT22;31262;51.978;5.924;2022-11-04T16:34:28;14.50;68.80
45537;DHT22;31262;51.978;5.924;2022-11-04T16:36:53;14.50;68.70
45537;DHT22;31262;51.978;5.924;2022-11-04T16:39:22;14.60;68.80
45537;DHT22;31262;51.978;5.924;2022-11-04T16:41:47;14.60;68.80
45537;DHT22;31262;51.978;5.924;2022-11-04T16:44:17;14.60;68.90
45537;DHT22;31262;51.978;5.924;2022-11-04T16:46:44;14.60;68.90
45537;DHT22;31262;51.978;5.924;2022-11-04T16:49:10;14.50;68.80
45537;DHT22;31262;51.978;5.924;2022-11-04T16:51:38;14.60;68.90
45537;DHT22;31262;51.978;5.924;2022-11-04T16:54:04;14.60;68.90
45537;DHT22;31262;51.978;5.924;2022-11-04T16:56:29;14.70;68.70
45537;DHT22;31262;51.978;5.924;2022-11-04T16:58:55;14.70;68.60
45537;DHT22;31262;51.978;5.924;2022-11-04T17:01:20;14.70;68.60
45537;DHT22;31262;51.978;5.924;2022-11-04T17:03:46;14.70;68.60
45537;DHT22;31262;51.978;5.924;2022-11-04T17:06:12;14.60;68.60
45537;DHT22;31262;51.978;5.924;2022-11-04T17:08:38;14.60;68.70
45537;DHT22;31262;51.978;5.924;2022-11-04T17:11:04;14.60;68.80
45537;DHT22;31262;51.978;5.924;2022-11-04T17:13:30;14.60;68.70
45537;DHT22;31262;51.978;5.924;2022-11-04T17:15:55;14.50;68.60
45537;DHT22;31262;51.978;5.924;2022-11-04T17:18:21;14.50;68.60
45537;DHT22;31262;51.978;5.924;2022-11-04T17:20:48;14.40;68.70
45537;DHT22;31262;51.978;5.924;2022-11-04T17:23:15;14.30;68.80
45537;DHT22;31262;51.978;5.924;2022-11-04T17:25:41;14.30;69.10
45537;DHT22;31262;51.978;5.924;2022-11-04T17:28:07;14.10;69.20
45537;DHT22;31262;51.978;5.924;2022-11-04T17:30:32;14.10;69.40
45537;DHT22;31262;51.978;5.924;2022-11-04T17:32:58;14.00;69.50
45537;DHT22;31262;51.978;5.924;2022-11-04T17:35:24;14.00;69.60
45537;DHT22;31262;51.978;5.924;2022-11-04T17:37:50;14.00;69.80
45537;DHT22;31262;51.978;5.924;2022-11-04T17:40:17;13.90;69.70
45537;DHT22;31262;51.978;5.924;2022-11-04T17:42:43;13.90;69.80
45537;DHT22;31262;51.978;5.924;2022-11-04T17:45:27;13.90;69.80